Time;durP1;ratioP1;P1;durP2;ratioP2;P2;SDS_P1;SDS_P2;PMS_P1;PMS_P2;Temp;Humidity;BMP_temperature;BMP_pressure;BME280_temperature;BME280_humidity;BME280_pressure;Samples;Min_cycle;Max_cycle;Signal;HPM_P1;HPM_P2
2023/02/24 00:00:30;;;;;;;40.60;29.33;;;;;;;10.23;65.11;99546.78;5035585;27;97066;-80
2023/02/24 00:02:51;;;;;;;40.22;29.90;;;;;;;10.06;65.35;99513.44;5054145;27;98190;-79
2023/02/24 00:05:17;;;;;;;36.97;27.27;;;;;;;10.19;65.06;99537.34;5051722;27;101268;-79
2023/02/24 00:07:43;;;;;;;36.97;27.92;;;;;;;10.22;65.09;99541.59;5029201;27;97123;-78
2023/02/24 00:10:10;;;;;;;39.78;28.45;;;;;;;10.01;64.88;99501.47;5027045;27;97153;-78
2023/02/24 00:12:35;;;;;;;38.65;27.30;;;;;;;10.23;65.04;99530.19;5040304;27;97499;-78
2023/02/24 00:15:01;;;;;;;37.45;28.55;;;;;;;10.23;64.72;99522.31;5025649;27;100967;-80
2023/02/24 00:17:29;;;;;;;35.60;27.85;;;;;;;10.23;65.10;99522.31;5035231;27;97124;-79
2023/02/24 00:19:55;;;;;;;36.90;27.13;;;;;;;10.16;64.91;99501.63;5044408;27;97137;-78
2023/02/24 00:22:21;;;;;;;37.88;28.67;;;;;;;10.21;65.09;99506.66;5063516;27;98081;-78
2023/02/24 00:24:46;;;;;;;38.30;29.20;;;;;;;10.19;65.39;99503.25;5032390;27;98168;-82
2023/02/24 00:27:12;;;;;;;40.60;30.77;;;;;;;10.11;65.00;99490.47;5031187;27;98057;-78
2023/02/24 00:29:39;;;;;;;40.92;29.95;;;;;;;10.15;65.12;99489.44;5023246;27;97026;-78
2023/02/24 00:32:06;;;;;;;39.55;30.02;;;;;;;10.27;64.82;99510.78;5011978;27;98443;-79
2023/02/24 00:34:35;;;;;;;39.97;30.02;;;;;;;10.27;65.16;99505.53;5013132;28;101532;-78
2023/02/24 00:37:01;;;;;;;41.13;29.13;;;;;;;10.21;65.97;99501.41;5001375;27;97533;-79
2023/02/24 00:39:34;;;;;;;38.92;28.75;;;;;;;10.23;65.81;99509.22;4998581;27;97299;-79
2023/02/24 00:42:05;;;;;;;38.33;28.13;;;;;;;10.13;66.25;99485.19;5011435;27;101889;-79
2023/02/24 00:44:34;;;;;;;41.40;28.17;;;;;;;10.23;66.26;99503.97;5001021;27;100980;-81
2023/02/24 00:47:01;;;;;;;37.70;27.88;;;;;;;10.24;66.33;99498.66;5009151;27;97557;-79
2023/02/24 00:49:28;;;;;;;41.88;29.35;;;;;;;10.14;66.25;99477.22;5023272;27;97291;-79
2023/02/24 00:51:53;;;;;;;36.85;27.17;;;;;;;10.24;66.58;99493.41;5000299;27;101350;-78
2023/02/24 00:54:20;;;;;;;39.95;28.83;;;;;;;10.24;66.90;99485.53;5013156;27;100859;-78
2023/02/24 00:56:47;;;;;;;38.00;27.13;;;;;;;10.22;66.71;99481.28;4994326;28;96888;-78
2023/02/24 00:59:17;;;;;;;35.75;26.95;;;;;;;10.21;67.06;99483.06;5012430;27;96866;-78
2023/02/24 01:01:44;;;;;;;35.15;27.02;;;;;;;10.19;66.69;99477.88;5014280;27;101210;-78
2023/02/24 01:04:11;;;;;;;36.38;26.77;;;;;;;10.24;66.73;99476.78;5014645;27;101493;-81
2023/02/24 01:06:49;;;;;;;37.13;25.67;;;;;;;10.12;66.34;99444.13;5001890;27;97253;-78
2023/02/24 01:09:18;;;;;;;35.33;25.65;;;;;;;10.21;66.81;99467.31;5032480;27;97959;-79
2023/02/24 01:14:31;;;;;;;37.00;26.17;;;;;;;10.24;66.55;99461.94;5034129;27;101817;-78
2023/02/24 01:16:58;;;;;;;36.80;25.42;;;;;;;10.12;66.71;99442.38;5010701;28;97082;-78
2023/02/24 01:19:30;;;;;;;37.35;26.65;;;;;;;10.25;66.96;99461.00;5000231;27;97169;-79
2023/02/24 01:22:00;;;;;;;37.10;26.67;;;;;;;10.17;66.66;99439.53;4994420;27;101349;-78
2023/02/24 01:24:35;;;;;;;39.08;27.60;;;;;;;10.26;66.90;99451.34;5011041;27;101302;-79
2023/02/24 01:27:01;;;;;;;36.60;26.60;;;;;;;10.15;67.03;99436.09;4997509;27;98091;-78
2023/02/24 01:29:27;;;;;;;39.33;27.70;;;;;;;10.23;66.91;99441.00;5025407;27;97980;-80
2023/02/24 01:31:56;;;;;;;34.45;25.90;;;;;;;10.25;66.81;99444.41;5003378;27;101362;-79
2023/02/24 01:34:26;;;;;;;39.55;27.48;;;;;;;10.26;66.80;99453.97;5002461;27;101385;-78
2023/02/24 01:36:52;;;;;;;37.75;28.70;;;;;;;10.26;67.24;99448.72;5008282;28;97235;-80
2023/02/24 01:39:18;;;;;;;38.20;26.58;;;;;;;10.25;67.33;99444.41;4997877;27;96705;-78
2023/02/24 01:41:47;;;;;;;38.03;25.85;;;;;;;10.24;67.04;99440.94;5002628;28;101565;-79
2023/02/24 01:44:12;;;;;;;37.03;25.90;;;;;;;10.26;67.46;99441.72;4988911;27;101394;-80
2023/02/24 01:46:40;;;;;;;35.60;25.38;;;;;;;10.26;67.43;99436.47;5025418;27;96877;-78
2023/02/24 01:49:13;;;;;;;34.92;26.85;;;;;;;10.20;67.56;99424.47;4997377;27;96794;-78
2023/02/24 01:51:48;;;;;;;38.47;27.13;;;;;;;10.19;67.54;99412.31;5009118;27;101579;-80
2023/02/24 01:54:16;;;;;;;39.67;26.73;;;;;;;10.18;67.56;99421.09;4996014;27;101364;-79
2023/02/24 01:56:41;;;;;;;37.05;25.85;;;;;;;10.19;67.27;99417.56;4996409;27;98065;-78
2023/02/24 01:59:08;;;;;;;38.97;26.40;;;;;;;10.25;67.46;99421.66;5003283;27;96790;-78
2023/02/24 02:01:39;;;;;;;40.05;26.67;;;;;;;10.22;67.21;99413.09;4989604;27;102262;-78
2023/02/24 02:04:21;;;;;;;40.92;26.60;;;;;;;10.10;67.48;99391.75;5013704;27;98060;-79
2023/02/24 02:06:47;;;;;;;38.85;25.95;;;;;;;10.16;67.58;99396.72;5004493;27;97277;-78
2023/02/24 02:09:14;;;;;;;36.72;25.88;;;;;;;10.17;67.17;99390.53;5013449;27;96840;-79
2023/02/24 02:11:41;;;;;;;36.42;25.17;;;;;;;10.16;67.34;99386.22;5004695;27;98214;-79
2023/02/24 02:14:07;;;;;;;40.20;26.88;;;;;;;10.17;67.27;99389.69;5005198;27;98364;-78
2023/02/24 02:17:15;;;;;;;35.28;26.05;;;;;;;10.26;67.06;99402.38;5006969;27;97702;-80
2023/02/24 02:20:14;;;;;;;38.25;26.10;;;;;;;10.26;67.03;99407.63;4994871;27;97297;-79
2023/02/24 02:23:05;;;;;;;40.10;26.30;;;;;;;10.26;67.04;99398.91;5000618;28;101875;-79
2023/02/24 02:25:37;;;;;;;39.17;27.45;;;;;;;10.26;66.92;99396.28;5020400;27;97459;-78
2023/02/24 02:28:05;;;;;;;;;;;;;;;10.23;67.34;99402.50;5033105;27;100516;-78
2023/02/24 02:31:03;;;;;;;37.42;25.15;;;;;;;10.25;67.33;99394.59;5035048;27;97327;-78
2023/02/24 02:33:49;;;;;;;37.30;26.52;;;;;;;10.20;67.26;99382.53;5052118;27;101141;-82
2023/02/24 02:36:34;;;;;;;38.92;25.42;;;;;;;10.25;67.60;99391.97;5065635;27;102079;-79
2023/02/24 02:39:21;;;;;;;38.72;24.70;;;;;;;10.25;67.43;99386.72;5047446;27;96796;-78
2023/02/24 02:41:53;;;;;;;38.78;25.38;;;;;;;10.25;67.40;99381.47;5050328;27;97288;-78
2023/02/24 02:44:43;;;;;;;38.63;27.25;;;;;;;10.10;67.68;99360.28;5030959;27;101315;-78
2023/02/24 02:47:18;;;;;;;39.50;26.38;;;;;;;10.23;67.82;99380.69;5051307;27;101712;-78
2023/02/24 02:50:07;;;;;;;39.05;26.58;;;;;;;10.18;68.42;99368.66;5047659;27;97438;-78
2023/02/24 02:52:43;;;;;;;40.58;27.45;;;;;;;10.18;68.57;99367.78;5036465;27;97527;-78
2023/02/24 02:55:12;;;;;;;44.35;26.25;;;;;;;9.96;68.23;99328.63;5029191;27;101401;-78
2023/02/24 02:57:46;;;;;;;37.35;26.35;;;;;;;10.22;68.53;99360.63;5048299;27;98472;-78
2023/02/24 03:00:20;;;;;;;41.47;27.20;;;;;;;10.22;68.42;99361.47;5045127;27;97210;-79
2023/02/24 03:02:49;;;;;;;39.85;27.42;;;;;;;10.20;68.62;99361.53;5021256;27;96796;-79
2023/02/24 03:05:19;;;;;;;40.38;27.05;;;;;;;10.21;68.70;99359.78;5040517;27;101743;-83
2023/02/24 03:07:49;;;;;;;38.95;25.90;;;;;;;10.24;68.97;99358.75;5041975;27;104996;-78
2023/02/24 03:10:26;;;;;;;37.75;26.42;;;;;;;10.23;69.20;99352.69;5025932;27;97084;-82
2023/02/24 03:12:54;;;;;;;40.10;26.67;;;;;;;10.24;69.27;99362.25;5067599;27;97310;-79
2023/02/24 03:15:21;;;;;;;42.58;27.08;;;;;;;10.24;69.17;99356.16;5034057;27;98453;-79
2023/02/24 03:17:55;;;;;;;42.60;27.77;;;;;;;10.18;69.32;99349.41;5036737;27;101529;-78
2023/02/24 03:20:27;;;;;;;40.10;26.88;;;;;;;10.12;69.77;99334.84;5048185;27;96762;-80
2023/02/24 03:23:00;;;;;;;38.50;28.45;;;;;;;10.18;69.53;99349.41;5028567;27;97899;-78
2023/02/24 03:25:33;;;;;;;40.03;27.50;;;;;;;10.08;69.94;99312.31;5035047;27;101203;-79
2023/02/24 03:28:04;;;;;;;39.95;26.80;;;;;;;10.23;69.40;99344.81;5048109;27;101632;-78
2023/02/24 03:30:45;;;;;;;41.80;25.83;;;;;;;10.12;69.92;99326.13;5051196;27;97443;-78
2023/02/24 03:33:15;;;;;;;43.88;29.23;;;;;;;10.21;69.91;99333.56;5048871;27;97204;-79
2023/02/24 03:35:42;;;;;;;43.28;28.15;;;;;;;10.09;70.16;99310.53;5052595;27;100444;-78
2023/02/24 03:38:10;;;;;;;39.78;26.30;;;;;;;10.18;69.46;99334.56;5047289;27;101736;-78
2023/02/24 03:40:42;;;;;;;35.50;24.85;;;;;;;10.23;69.71;99334.31;5036825;27;97562;-78
2023/02/24 03:43:24;;;;;;;44.15;26.88;;;;;;;10.14;69.92;99324.28;5023551;27;96882;-81
2023/02/24 03:45:51;;;;;;;37.40;26.15;;;;;;;10.20;69.42;99332.69;5044321;27;100542;-78
2023/02/24 03:48:18;;;;;;;38.63;26.10;;;;;;;10.19;69.72;99325.75;5019364;27;101374;-82
2023/02/24 03:50:44;;;;;;;40.08;28.30;;;;;;;10.21;69.54;99325.69;5038038;27;97025;-79
2023/02/24 03:53:53;;;;;;;41.42;28.08;;;;;;;10.20;69.96;99323.97;5054315;27;97449;-78
2023/02/24 03:56:44;;;;;;;39.63;27.25;;;;;;;10.20;70.06;99324.81;5046531;27;101719;-78
2023/02/24 03:59:36;;;;;;;43.67;28.08;;;;;;;10.14;69.92;99317.25;5056871;27;101133;-80
2023/02/24 04:02:08;;;;;;;42.45;27.98;;;;;;;10.21;69.63;99320.44;5069763;27;97593;-79
2023/02/24 04:04:53;;;;;;;39.30;26.95;;;;;;;10.18;69.73;99313.56;5043656;27;97717;-78
2023/02/24 04:07:51;;;;;;;41.70;28.23;;;;;;;10.20;69.97;99311.72;5052524;27;101260;-78
2023/02/24 04:10:24;;;;;;;41.13;27.10;;;;;;;10.18;69.87;99300.47;5032789;27;101735;-82
2023/02/24 04:13:04;;;;;;;40.00;26.70;;;;;;;10.22;69.71;99300.31;5035550;27;97312;-80
2023/02/24 04:15:57;;;;;;;42.50;28.92;;;;;;;10.16;69.77;99290.97;5032579;27;96877;-78
2023/02/24 04:18:26;;;;;;;41.35;27.70;;;;;;;10.15;69.69;99297.13;5036154;27;101622;-79
2023/02/24 04:20:52;;;;;;;40.22;28.90;;;;;;;10.08;69.64;99270.34;5039796;27;101939;-81
2023/02/24 04:23:25;;;;;;;43.00;29.10;;;;;;;10.19;69.96;99286.41;5025928;27;97547;-83
2023/02/24 04:25:55;;;;;;;40.03;27.45;;;;;;;10.13;69.47;99275.38;5037303;27;97119;-80
2023/02/24 04:28:24;;;;;;;34.22;25.48;;;;;;;10.20;69.84;99287.25;5018993;27;101253;-80
2023/02/24 04:30:54;;;;;;;36.20;26.83;;;;;;;10.20;69.66;99282.00;5015011;27;101462;-78
2023/02/24 04:33:19;;;;;;;40.95;25.80;;;;;;;10.11;69.71;99272.81;5013083;27;97150;-83
2023/02/24 04:35:49;;;;;;;38.08;26.27;;;;;;;10.18;70.19;99276.88;5011783;28;96961;-78
2023/02/24 04:38:15;;;;;;;37.03;26.77;;;;;;;10.17;69.69;99279.53;4997753;27;101518;-78
2023/02/24 04:40:41;;;;;;;41.50;27.70;;;;;;;10.22;70.04;99274.94;4990446;27;100747;-80
2023/02/24 04:43:07;;;;;;;42.30;27.30;;;;;;;10.24;69.96;99280.97;4995847;27;97271;-79
2023/02/24 04:45:33;;;;;;;38.28;27.25;;;;;;;10.13;69.91;99264.91;5029353;27;97243;-78
2023/02/24 04:48:00;;;;;;;37.33;26.60;;;;;;;10.06;70.50;99248.59;5014774;27;101140;-78
2023/02/24 04:50:35;;;;;;;41.22;28.10;;;;;;;10.14;70.23;99262.19;4994440;28;101817;-80
2023/02/24 04:53:05;;;;;;;37.90;25.63;;;;;;;10.19;70.74;99264.59;5002586;27;97314;-78
2023/02/24 04:55:33;;;;;;;32.38;25.13;;;;;;;10.17;70.42;99264.66;5026522;28;97446;-79
2023/02/24 04:58:00;;;;;;;38.00;25.85;;;;;;;10.17;70.23;99264.66;5004357;27;98038;-78
2023/02/24 05:00:28;;;;;;;36.60;26.45;;;;;;;10.17;70.36;99256.78;4990966;28;101696;-82
2023/02/24 05:02:55;;;;;;;39.38;26.42;;;;;;;10.07;71.13;99236.34;4997981;27;96763;-79
2023/02/24 05:05:26;;;;;;;38.60;25.25;;;;;;;10.15;70.71;99252.53;4996240;27;96926;-81
2023/02/24 05:07:53;;;;;;;40.50;26.90;;;;;;;10.19;71.21;99256.72;5015708;27;98545;-80
2023/02/24 05:10:19;;;;;;;37.05;25.45;;;;;;;10.17;71.12;99256.78;5027665;27;97986;-79
2023/02/24 05:12:44;;;;;;;35.42;25.23;;;;;;;10.11;70.95;99232.66;5010443;27;97661;-78
2023/02/24 05:15:13;;;;;;;40.33;27.58;;;;;;;10.22;71.03;99253.94;5002765;27;97231;-78
2023/02/24 05:17:39;;;;;;;35.80;26.00;;;;;;;10.16;70.86;99244.59;5001652;27;102690;-78
2023/02/24 05:22:51;;;;;;;36.17;25.05;;;;;;;10.17;70.93;99242.84;5023216;27;97351;-79
2023/02/24 05:25:19;;;;;;;34.55;25.02;;;;;;;10.06;70.90;99225.00;4990626;27;97197;-78
2023/02/24 05:27:45;;;;;;;36.83;25.42;;;;;;;10.19;71.02;99241.00;5013869;27;98429;-78
2023/02/24 05:30:11;;;;;;;35.45;24.88;;;;;;;10.16;71.37;99231.50;5048807;27;97984;-80
2023/02/24 05:32:37;;;;;;;35.83;25.25;;;;;;;10.15;71.41;99229.81;5016518;27;96956;-79
2023/02/24 05:35:03;;;;;;;34.28;25.08;;;;;;;10.06;71.48;99222.38;5021015;27;97222;-78
2023/02/24 05:37:28;;;;;;;33.75;23.13;;;;;;;10.18;71.53;99239.28;5049964;27;101055;-79
2023/02/24 05:39:55;;;;;;;36.80;24.30;;;;;;;10.19;71.24;99248.84;5049687;27;101599;-78
2023/02/24 05:42:20;;;;;;;32.78;24.08;;;;;;;10.18;71.56;99242.78;5050227;27;96802;-80
2023/02/24 05:44:46;;;;;;;39.28;26.63;;;;;;;10.06;71.38;99217.13;5024819;27;98131;-78
2023/02/24 05:47:12;;;;;;;38.00;26.60;;;;;;;10.19;71.40;99238.38;5034003;27;101462;-80
2023/02/24 05:49:38;;;;;;;40.47;25.90;;;;;;;10.18;71.33;99245.38;5045334;27;101352;-78
2023/02/24 05:52:08;;;;;;;39.00;26.23;;;;;;;10.06;71.59;99219.75;5038738;27;97132;-78
2023/02/24 05:54:36;;;;;;;39.90;27.20;;;;;;;10.15;71.53;99239.44;5048762;27;96866;-78
2023/02/24 05:57:05;;;;;;;36.22;25.02;;;;;;;10.01;72.00;99208.66;5033314;27;102020;-79
2023/02/24 05:59:31;;;;;;;37.35;24.75;;;;;;;10.08;71.64;99217.91;5041310;27;99642;-79
2023/02/24 06:01:59;;;;;;;34.38;23.42;;;;;;;10.16;71.77;99231.50;5041275;27;97241;-79
2023/02/24 06:04:45;;;;;;;36.05;23.80;;;;;;;10.17;72.21;99230.56;5044958;27;97021;-82
2023/02/24 06:07:12;;;;;;;32.47;21.85;;;;;;;10.18;71.98;99229.66;5049322;27;98328;-78
2023/02/24 06:09:43;;;;;;;32.92;22.65;;;;;;;10.18;72.07;99228.78;5030892;27;101591;-79
2023/02/24 06:12:10;;;;;;;28.97;20.93;;;;;;;10.07;72.20;99221.47;5053626;27;96715;-79
2023/02/24 06:14:35;;;;;;;31.20;22.65;;;;;;;10.16;71.76;99231.50;5041138;27;97106;-79
2023/02/24 06:17:01;;;;;;;30.33;22.02;;;;;;;10.19;72.19;99233.97;5049118;27;101610;-79
2023/02/24 06:19:30;;;;;;;30.15;21.13;;;;;;;10.03;72.38;99209.41;5030392;27;101255;-82
2023/02/24 06:22:00;;;;;;;29.63;21.55;;;;;;;10.11;72.36;99222.16;5039517;27;96753;-79
2023/02/24 06:24:28;;;;;;;27.70;20.08;;;;;;;10.08;72.40;99224.94;5022068;27;97188;-79
2023/02/24 06:27:01;;;;;;;27.67;20.17;;;;;;;10.12;72.49;99235.22;5040382;27;101863;-79
2023/02/24 06:29:30;;;;;;;29.58;20.38;;;;;;;10.16;72.67;99246.38;5042887;27;98319;-81
2023/02/24 06:31:56;;;;;;;25.05;19.00;;;;;;;10.06;72.44;99221.53;5060536;27;97171;-79
2023/02/24 06:34:23;;;;;;;22.35;16.80;;;;;;;10.03;72.36;99219.91;5028059;27;97262;-80
2023/02/24 06:36:53;;;;;;;22.95;15.80;;;;;;;10.16;72.65;99247.22;5031449;27;101321;-81
2023/02/24 06:39:18;;;;;;;25.23;15.55;;;;;;;10.11;72.51;99236.09;5050758;27;101075;-80
2023/02/24 06:41:44;;;;;;;22.85;15.40;;;;;;;10.14;72.42;99241.19;5041173;27;97259;-79
2023/02/24 06:44:10;;;;;;;21.67;14.18;;;;;;;10.05;72.00;99228.56;5030862;27;97012;-78
2023/02/24 06:46:36;;;;;;;18.77;13.32;;;;;;;10.16;72.14;99236.75;5043407;27;97828;-80
2023/02/24 06:49:02;;;;;;;19.70;13.43;;;;;;;10.16;71.60;99243.75;5047499;27;101319;-79
2023/02/24 06:51:29;;;;;;;16.52;12.77;;;;;;;10.18;72.23;99242.78;5030497;27;97335;-79
2023/02/24 06:53:58;;;;;;;18.05;12.88;;;;;;;10.17;71.98;99241.06;5031349;27;96917;-80
2023/02/24 06:56:24;;;;;;;17.88;12.73;;;;;;;10.18;71.66;99241.91;5061497;27;97744;-80
2023/02/24 06:58:51;;;;;;;18.45;13.15;;;;;;;10.14;71.58;99243.81;5032613;27;101318;-79
2023/02/24 07:01:19;;;;;;;18.77;12.13;;;;;;;10.16;71.66;99249.84;5045146;27;98070;-80
2023/02/24 07:04:02;;;;;;;18.10;12.60;;;;;;;10.14;71.54;99248.22;5047948;27;98440;-79
2023/02/24 07:06:33;;;;;;;18.38;12.20;;;;;;;10.05;71.73;99225.94;5065425;27;97937;-83
2023/02/24 07:09:07;;;;;;;19.77;12.57;;;;;;;10.12;70.97;99239.56;5065190;27;99382;-78
2023/02/24 07:11:34;;;;;;;19.00;12.95;;;;;;;10.05;71.55;99230.31;5062544;27;96773;-78
2023/02/24 07:14:00;;;;;;;18.58;12.27;;;;;;;10.16;71.42;99251.63;5040040;27;97335;-78
2023/02/24 07:16:27;;;;;;;21.48;12.93;;;;;;;10.08;71.39;99233.66;5022941;27;101374;-82
2023/02/24 07:19:01;;;;;;;20.02;12.93;;;;;;;10.14;70.81;99246.44;5055620;27;101725;-79
2023/02/24 07:21:48;;;;;;;18.23;12.70;;;;;;;10.14;70.83;99248.22;5049362;27;97374;-82
2023/02/24 07:24:23;;;;;;;21.25;12.65;;;;;;;10.12;70.91;99244.81;5050589;27;97967;-77
2023/02/24 07:26:57;;;;;;;19.75;13.18;;;;;;;10.14;70.83;99248.22;5049756;27;101626;-79
2023/02/24 07:29:24;;;;;;;20.58;12.48;;;;;;;10.13;71.26;99242.13;5049693;27;99201;-79
2023/02/24 07:31:53;;;;;;;21.08;14.43;;;;;;;10.04;70.94;99232.09;5033263;27;97086;-78
2023/02/24 07:34:23;;;;;;;21.05;14.02;;;;;;;10.06;71.40;99225.00;5030197;27;96832;-79
2023/02/24 07:36:53;;;;;;;17.52;12.63;;;;;;;9.99;70.83;99210.50;5025514;27;101805;-77
2023/02/24 07:39:19;;;;;;;19.20;12.80;;;;;;;10.04;70.85;99220.78;5047548;27;102338;-81
2023/02/24 07:41:48;;;;;;;17.70;13.07;;;;;;;10.07;71.17;99224.09;5039958;27;96829;-78
2023/02/24 07:44:15;;;;;;;21.48;13.93;;;;;;;10.06;70.96;99216.28;5048768;27;98028;-77
2023/02/24 07:46:41;;;;;;;18.63;12.57;;;;;;;10.07;70.76;99220.63;5040968;27;97710;-77
2023/02/24 07:49:11;;;;;;;18.85;13.13;;;;;;;10.08;70.19;99225.78;5032215;27;101897;-78
2023/02/24 07:51:36;;;;;;;19.65;12.95;;;;;;;10.00;70.57;99213.97;5030161;27;97368;-78
2023/02/24 07:54:04;;;;;;;19.83;13.55;;;;;;;10.04;70.18;99219.00;5041724;27;97146;-77
2023/02/24 07:56:31;;;;;;;19.45;13.75;;;;;;;10.08;70.64;99219.69;5033227;27;101276;-78
2023/02/24 07:59:06;;;;;;;22.33;13.90;;;;;;;10.07;69.83;99226.72;5050911;27;98009;-78
2023/02/24 08:01:38;;;;;;;20.10;13.02;;;;;;;9.94;70.31;99194.97;5048068;27;97245;-78
2023/02/24 08:04:11;;;;;;;18.02;13.32;;;;;;;10.01;69.93;99206.03;5049631;27;96884;-79
2023/02/24 08:06:42;;;;;;;21.23;14.75;;;;;;;10.06;69.64;99214.50;5024460;27;101058;-77
2023/02/24 08:09:17;;;;;;;20.23;12.68;;;;;;;10.05;69.95;99215.44;5049077;27;101338;-78
2023/02/24 08:11:51;;;;;;;19.42;12.85;;;;;;;10.03;70.02;99201.53;5048392;27;97622;-79
2023/02/24 08:14:22;;;;;;;22.77;13.27;;;;;;;10.01;69.85;99195.56;5036957;27;97485;-77
2023/02/24 08:16:58;;;;;;;20.33;13.48;;;;;;;10.03;69.93;99188.44;5032270;27;101236;-78
2023/02/24 08:19:31;;;;;;;19.70;13.43;;;;;;;9.94;70.27;99174.00;5022343;27;100991;-78
2023/02/24 08:22:17;;;;;;;20.85;14.25;;;;;;;10.12;70.00;99198.50;5046212;27;97243;-80
2023/02/24 08:24:49;;;;;;;20.73;13.73;;;;;;;10.12;69.98;99200.25;5050232;27;96955;-80
2023/02/24 08:27:18;;;;;;;23.80;14.82;;;;;;;9.99;70.19;99176.41;5030599;27;101532;-80
2023/02/24 08:30:00;;;;;;;21.15;14.05;;;;;;;10.02;69.61;99173.66;5013463;27;97926;-80
2023/02/24 08:32:42;;;;;;;21.73;13.77;;;;;;;10.00;69.83;99169.41;4995792;27;96735;-80
2023/02/24 08:35:14;;;;;;;;;;;;;;;10.13;69.70;99194.09;5012368;27;97358;-80
2023/02/24 08:37:51;;;;;;;19.35;12.48;;;;;;;10.10;69.91;99189.00;5026546;27;101299;-80
2023/02/24 08:41:03;;;;;;;20.75;12.07;;;;;;;10.12;69.44;99187.13;5010008;28;100839;-80
2023/02/24 08:43:16;;;;;;;20.02;12.57;;;;;;;10.03;69.78;99167.47;5009327;27;98524;-81
2023/02/24 08:45:46;;;;;;;20.70;12.77;;;;;;;10.16;69.54;99191.31;5027026;27;97612;-80
2023/02/24 08:48:46;;;;;;;19.75;12.93;;;;;;;10.14;69.21;99186.13;5011586;27;97631;-80
2023/02/24 08:51:27;;;;;;;23.23;13.10;;;;;;;10.15;68.93;99185.22;5030340;27;97987;-80
2023/02/24 08:53:55;;;;;;;21.58;13.82;;;;;;;10.15;69.17;99184.34;5002116;27;96904;-79
2023/02/24 08:56:27;;;;;;;18.13;12.02;;;;;;;10.13;69.46;99173.97;5015142;27;96876;-78
2023/02/24 08:59:04;;;;;;;18.58;11.48;;;;;;;10.14;68.86;99172.19;5021870;27;98909;-77
2023/02/24 09:01:35;;;;;;;36.17;14.63;;;;;;;10.14;69.02;99178.28;5004871;27;100766;-80
2023/02/24 09:04:05;;;;;;;18.90;13.15;;;;;;;10.16;70.95;99165.94;5011019;27;97860;-83
2023/02/24 09:06:38;;;;;;;20.42;11.82;;;;;;;9.95;68.90;99148.66;5013549;27;96730;-83
2023/02/24 09:09:17;;;;;;;20.30;11.50;;;;;;;9.89;68.89;99156.81;4998255;27;100087;-82
2023/02/24 09:11:47;;;;;;;16.77;11.10;;;;;;;9.79;68.69;99153.81;4985927;28;99920;-84
2023/02/24 09:14:15;;;;;;;15.95;10.77;;;;;;;9.80;69.16;99155.50;5005213;28;96992;-84
2023/02/24 09:17:19;;;;;;;17.85;10.95;;;;;;;9.69;69.37;99134.25;4996768;27;96984;-84
2023/02/24 09:22:30;;;;;;;17.05;10.18;;;;;;;9.68;68.32;99133.38;5003969;28;101970;-83
2023/02/24 09:25:16;;;;;;;15.73;9.98;;;;;;;9.79;68.46;99142.47;5005300;27;97170;-83
2023/02/24 09:27:51;;;;;;;17.17;10.32;;;;;;;9.82;68.26;99139.72;5010748;27;97250;-85
2023/02/24 09:30:36;;;;;;;16.58;9.75;;;;;;;9.75;68.63;99144.41;5063023;27;101472;-83
2023/02/24 09:33:17;;;;;;;16.90;10.48;;;;;;;9.79;68.58;99148.56;5048409;27;101916;-83
2023/02/24 09:35:51;;;;;;;15.77;10.50;;;;;;;9.64;68.67;99118.72;5028467;27;97249;-84
2023/02/24 09:38:23;;;;;;;19.27;9.82;;;;;;;9.59;68.26;99125.13;5045968;27;97577;-87
2023/02/24 09:40:49;;;;;;;15.73;9.45;;;;;;;9.70;68.26;99135.94;5051897;27;98630;-86
2023/02/24 09:43:18;;;;;;;16.98;9.52;;;;;;;9.68;68.20;99125.50;5035571;27;99269;-86
2023/02/24 09:45:57;;;;;;;15.85;9.93;;;;;;;9.62;67.93;99111.88;5030201;27;97696;-85
2023/02/24 09:48:53;;;;;;;14.50;9.70;;;;;;;9.71;68.29;99119.25;5044304;27;96852;-87
2023/02/24 09:51:20;;;;;;;16.48;9.55;;;;;;;9.62;68.49;99102.22;5058505;27;100819;-87
2023/02/24 09:53:51;;;;;;;13.93;9.13;;;;;;;9.67;68.78;99118.56;5028874;27;99895;-86
2023/02/24 09:56:24;;;;;;;14.98;9.95;;;;;;;9.68;68.24;99112.41;5043744;27;97008;-85
2023/02/24 09:59:12;;;;;;;13.40;9.15;;;;;;;9.53;68.37;99086.97;5035822;27;97581;-85
2023/02/24 10:02:15;;;;;;;16.23;8.73;;;;;;;9.64;68.30;99112.66;5017300;27;101241;-86
2023/02/24 10:05:26;;;;;;;13.98;8.13;;;;;;;9.62;68.54;99109.25;5054454;27;101257;-82
2023/02/24 10:07:55;;;;;;;12.13;8.10;;;;;;;9.62;68.12;99098.75;5037387;27;97449;-85
2023/02/24 10:10:29;;;;;;;11.55;7.07;;;;;;;9.53;68.01;99079.09;5036178;27;96778;-85
2023/02/24 10:12:57;;;;;;;11.27;7.45;;;;;;;9.65;68.24;99099.44;5045974;27;101880;-85
2023/02/24 10:18:26;;;;;;;10.65;6.90;;;;;;;9.55;68.29;99086.91;5044165;27;96901;-83
2023/02/24 10:20:53;;;;;;;10.45;7.00;;;;;;;9.64;67.85;99089.91;5063418;27;97179;-83
2023/02/24 10:23:58;;;;;;;14.10;7.30;;;;;;;9.79;67.61;99080.44;5045976;27;101249;-83
2023/02/24 10:26:43;;;;;;;12.20;7.40;;;;;;;9.80;67.75;99061.16;5062939;27;101527;-83
2023/02/24 10:29:42;;;;;;;11.38;7.10;;;;;;;9.89;67.74;99076.44;5046966;27;96959;-84
2023/02/24 10:32:32;;;;;;;13.05;7.30;;;;;;;9.77;67.57;99073.56;5036155;27;102755;-83
2023/02/24 10:34:59;;;;;;;11.40;6.88;;;;;;;9.71;67.58;99070.31;5057391;27;97985;-84
2023/02/24 10:37:27;;;;;;;12.75;6.63;;;;;;;9.60;67.87;99056.06;5027940;27;101731;-83
2023/02/24 10:40:08;;;;;;;12.27;7.38;;;;;;;9.63;67.09;99066.38;5066245;27;97188;-84
2023/02/24 10:42:36;;;;;;;11.33;6.40;;;;;;;9.44;67.14;99033.25;5045113;27;97451;-84
2023/02/24 10:45:23;;;;;;;11.98;6.75;;;;;;;9.58;67.31;99053.53;5048845;27;100541;-83
2023/02/24 10:47:55;;;;;;;12.40;6.20;;;;;;;9.52;67.93;99032.88;5046683;27;99615;-84
2023/02/24 10:50:23;;;;;;;;;;;;;;;9.64;67.72;99047.13;5046471;27;97829;-83
2023/02/24 10:58:26;;;;;;;9.23;4.65;;;;;;;9.57;65.34;99040.50;5065003;27;97296;-84
2023/02/24 11:01:11;;;;;;;11.35;4.80;;;;;;;9.57;65.68;99036.13;5051178;27;97222;-83
2023/02/24 11:03:41;;;;;;;7.22;3.72;;;;;;;9.50;66.15;99005.91;5046952;27;98037;-84
2023/02/24 11:09:28;;;;;;;8.30;4.63;;;;;;;9.55;65.17;98995.22;5023827;27;101806;-84
2023/02/24 11:18:09;;;;;;;6.78;4.20;;;;;;;9.72;65.40;98985.56;5064759;27;101274;-84
2023/02/24 11:20:35;;;;;;;6.45;4.07;;;;;;;9.75;65.88;98980.16;5038223;27;101706;-84
2023/02/24 11:23:08;;;;;;;7.00;4.57;;;;;;;9.80;65.31;98971.19;5066329;27;97355;-84
2023/02/24 11:25:40;;;;;;;6.80;4.85;;;;;;;9.84;65.66;98963.09;5031774;27;96840;-88
2023/02/24 11:28:28;;;;;;;9.50;5.25;;;;;;;9.84;65.53;98968.34;5048433;27;97407;-85
2023/02/24 11:30:58;;;;;;;15.30;4.70;;;;;;;9.82;65.88;98953.63;5051209;27;98567;-85
2023/02/24 11:33:30;;;;;;;5.85;4.07;;;;;;;9.81;65.03;98952.78;5048628;27;97237;-85
2023/02/24 11:36:21;;;;;;;5.40;3.20;;;;;;;9.71;64.87;98949.78;5062714;27;97154;-85
2023/02/24 11:39:15;;;;;;;6.50;3.63;;;;;;;9.73;64.89;98940.06;5057232;27;102178;-83
2023/02/24 11:41:44;;;;;;;5.28;3.40;;;;;;;9.73;64.05;98941.84;5039994;27;101222;-84
2023/02/24 11:44:24;;;;;;;8.60;4.00;;;;;;;9.67;63.96;98937.78;5036106;27;97406;-83
2023/02/24 11:46:56;;;;;;;7.65;4.50;;;;;;;9.61;64.00;98925.00;5062172;27;97148;-83
2023/02/24 11:49:21;;;;;;;;;;;;;;;9.65;64.22;98936.16;5028961;27;101219;-82
2023/02/24 11:51:47;;;;;;;8.80;4.43;;;;;;;9.68;64.05;98926.34;5047562;27;101179;-83
2023/02/24 11:54:16;;;;;;;9.30;4.68;;;;;;;9.71;64.32;98904.38;5047961;27;97203;-82
2023/02/24 11:56:47;;;;;;;7.95;5.25;;;;;;;9.82;65.01;98933.50;5035633;27;97539;-84
2023/02/24 11:59:29;;;;;;;6.57;3.90;;;;;;;9.80;64.79;98926.66;5048135;27;101640;-83
2023/02/24 12:02:11;;;;;;;8.20;5.15;;;;;;;9.77;64.84;98913.69;5031229;27;102112;-84
2023/02/24 12:04:39;;;;;;;;;;;;;;;9.73;65.44;98911.25;5029715;27;97261;-83
2023/02/24 12:07:26;;;;;;;5.88;4.53;;;;;;;9.57;65.54;98889.41;5030505;27;97303;-83
2023/02/24 12:10:11;;;;;;;9.57;5.85;;;;;;;9.65;65.65;98889.00;5056689;27;97915;-83